sensor_id;sensor_type;location;lat;lon;timestamp;pressure;altitude;pressure_sealevel;temperature;humidity
71889;BME280;59762;49.998;14.858;2023-02-01T00:01:32;97180.03;;;2.77;100.00
71889;BME280;59762;49.998;14.858;2023-02-01T00:03:58;97176.28;;;2.72;100.00
71889;BME280;59762;49.998;14.858;2023-02-01T00:06:23;97180.56;;;2.73;100.00
71889;BME280;59762;49.998;14.858;2023-02-01T00:08:52;97184.22;;;2.64;100.00
71889;BME280;59762;49.998;14.858;2023-02-01T00:11:18;97180.53;;;2.81;100.00
71889;BME280;59762;49.998;14.858;2023-02-01T00:13:43;97176.91;;;2.82;100.00
71889;BME280;59762;49.998;14.858;2023-02-01T00:16:14;97174.63;;;2.79;100.00
71889;BME280;59762;49.998;14.858;2023-02-01T00:18:45;97187.25;;;2.84;100.00
71889;BME280;59762;49.998;14.858;2023-02-01T00:21:12;97183.50;;;2.78;100.00
71889;BME280;59762;49.998;14.858;2023-02-01T00:23:38;97183.97;;;2.82;100.00
71889;BME280;59762;49.998;14.858;2023-02-01T00:26:13;97196.50;;;2.80;100.00
71889;BME280;59762;49.998;14.858;2023-02-01T00:28:39;97176.94;;;2.74;100.00
71889;BME280;59762;49.998;14.858;2023-02-01T00:31:05;97186.94;;;2.78;100.00
71889;BME280;59762;49.998;14.858;2023-02-01T00:33:31;97183.00;;;2.74;100.00
71889;BME280;59762;49.998;14.858;2023-02-01T00:35:58;97190.75;;;2.76;100.00
71889;BME280;59762;49.998;14.858;2023-02-01T00:38:25;97186.66;;;2.65;100.00
71889;BME280;59762;49.998;14.858;2023-02-01T00:40:50;97185.06;;;2.56;100.00
71889;BME280;59762;49.998;14.858;2023-02-01T00:43:16;97177.69;;;2.51;100.00
71889;BME280;59762;49.998;14.858;2023-02-01T00:45:42;97162.94;;;2.42;100.00
71889;BME280;59762;49.998;14.858;2023-02-01T00:48:07;97164.56;;;2.43;100.00
71889;BME280;59762;49.998;14.858;2023-02-01T00:50:33;97176.06;;;2.42;100.00
71889;BME280;59762;49.998;14.858;2023-02-01T00:52:59;97182.97;;;2.43;100.00
71889;BME280;59762;49.998;14.858;2023-02-01T00:55:25;97187.91;;;2.46;100.00
71889;BME280;59762;49.998;14.858;2023-02-01T00:57:50;97178.84;;;2.49;100.00
71889;BME280;59762;49.998;14.858;2023-02-01T01:00:16;97186.53;;;2.59;100.00
71889;BME280;59762;49.998;14.858;2023-02-01T01:02:42;97190.81;;;2.60;100.00
71889;BME280;59762;49.998;14.858;2023-02-01T01:05:08;97187.06;;;2.54;100.00
71889;BME280;59762;49.998;14.858;2023-02-01T01:07:33;97190.47;;;2.63;100.00
71889;BME280;59762;49.998;14.858;2023-02-01T01:09:59;97186.03;;;2.63;100.00
71889;BME280;59762;49.998;14.858;2023-02-01T01:12:25;97189.44;;;2.72;100.00
71889;BME280;59762;49.998;14.858;2023-02-01T01:14:51;97181.28;;;2.59;100.00
71889;BME280;59762;49.998;14.858;2023-02-01T01:17:17;97184.41;;;2.62;100.00
71889;BME280;59762;49.998;14.858;2023-02-01T01:19:42;97180.31;;;2.51;100.00
71889;BME280;59762;49.998;14.858;2023-02-01T01:22:08;97191.13;;;2.57;100.00
71889;BME280;59762;49.998;14.858;2023-02-01T01:24:34;97190.84;;;2.51;100.00
71889;BME280;59762;49.998;14.858;2023-02-01T01:27:00;97194.44;;;2.59;100.00
71889;BME280;59762;49.998;14.858;2023-02-01T01:29:25;97186.88;;;2.56;100.00
71889;BME280;59762;49.998;14.858;2023-02-01T01:31:51;97188.19;;;2.51;100.00
71889;BME280;59762;49.998;14.858;2023-02-01T01:34:17;97198.69;;;2.60;100.00
71889;BME280;59762;49.998;14.858;2023-02-01T01:36:43;97206.84;;;2.73;100.00
71889;BME280;59762;49.998;14.858;2023-02-01T01:39:08;97196.03;;;2.68;100.00
71889;BME280;59762;49.998;14.858;2023-02-01T01:41:34;97198.41;;;2.46;100.00
71889;BME280;59762;49.998;14.858;2023-02-01T01:44:05;97202.22;;;2.44;100.00
71889;BME280;59762;49.998;14.858;2023-02-01T01:49:22;97199.94;;;2.33;100.00
71889;BME280;59762;49.998;14.858;2023-02-01T01:51:53;97196.63;;;2.39;100.00
71889;BME280;59762;49.998;14.858;2023-02-01T01:54:25;97195.28;;;2.43;100.00
71889;BME280;59762;49.998;14.858;2023-02-01T01:56:56;97201.88;;;2.39;100.00
71889;BME280;59762;49.998;14.858;2023-02-01T01:59:23;97199.09;;;2.40;100.00
71889;BME280;59762;49.998;14.858;2023-02-01T02:01:50;97183.44;;;2.55;100.00
71889;BME280;59762;49.998;14.858;2023-02-01T02:04:17;97187.38;;;2.51;100.00
71889;BME280;59762;49.998;14.858;2023-02-01T02:06:49;97188.88;;;2.53;100.00
71889;BME280;59762;49.998;14.858;2023-02-01T02:09:16;97194.63;;;2.57;100.00
71889;BME280;59762;49.998;14.858;2023-02-01T02:11:42;97195.94;;;2.53;100.00
71889;BME280;59762;49.998;14.858;2023-02-01T02:14:11;97196.53;;;2.63;100.00
71889;BME280;59762;49.998;14.858;2023-02-01T02:16:50;97195.22;;;2.67;100.00
71889;BME280;59762;49.998;14.858;2023-02-01T02:28:51;97204.53;;;2.78;100.00
71889;BME280;59762;49.998;14.858;2023-02-01T02:42:00;97203.06;;;2.84;100.00
71889;BME280;59762;49.998;14.858;2023-02-01T02:45:11;97202.19;;;2.83;100.00
71889;BME280;59762;49.998;14.858;2023-02-01T02:51:11;97203.09;;;2.75;100.00
71889;BME280;59762;49.998;14.858;2023-02-01T02:54:18;97207.47;;;2.83;100.00
71889;BME280;59762;49.998;14.858;2023-02-01T02:57:07;97194.16;;;2.85;100.00
71889;BME280;59762;49.998;14.858;2023-02-01T02:59:53;97190.03;;;2.82;100.00
71889;BME280;59762;49.998;14.858;2023-02-01T03:02:40;97186.34;;;2.68;100.00
71889;BME280;59762;49.998;14.858;2023-02-01T03:05:25;97191.38;;;2.78;100.00
71889;BME280;59762;49.998;14.858;2023-02-01T03:08:03;97185.81;;;2.73;100.00
71889;BME280;59762;49.998;14.858;2023-02-01T03:13:26;97188.44;;;2.73;100.00
71889;BME280;59762;49.998;14.858;2023-02-01T03:18:26;97177.44;;;2.69;100.00
71889;BME280;59762;49.998;14.858;2023-02-01T03:20:55;97174.00;;;2.69;100.00
71889;BME280;59762;49.998;14.858;2023-02-01T03:23:26;97175.31;;;2.65;100.00
71889;BME280;59762;49.998;14.858;2023-02-01T03:25:56;97178.66;;;2.59;100.00
71889;BME280;59762;49.998;14.858;2023-02-01T03:28:25;97183.59;;;2.62;100.00
71889;BME280;59762;49.998;14.858;2023-02-01T03:30:52;97177.84;;;2.58;100.00
71889;BME280;59762;49.998;14.858;2023-02-01T03:33:20;97188.88;;;2.45;100.00
71889;BME280;59762;49.998;14.858;2023-02-01T03:41:51;97169.00;;;2.43;100.00
71889;BME280;59762;49.998;14.858;2023-02-01T03:46:57;97167.19;;;2.43;100.00
71889;BME280;59762;49.998;14.858;2023-02-01T03:49:37;97162.28;;;2.40;100.00
71889;BME280;59762;49.998;14.858;2023-02-01T03:52:06;97171.00;;;2.41;100.00
71889;BME280;59762;49.998;14.858;2023-02-01T03:54:33;97158.69;;;2.33;100.00
71889;BME280;59762;49.998;14.858;2023-02-01T03:57:05;97163.13;;;2.33;100.00
71889;BME280;59762;49.998;14.858;2023-02-01T03:59:32;97160.00;;;2.37;100.00
71889;BME280;59762;49.998;14.858;2023-02-01T04:01:58;97163.75;;;2.43;100.00
71889;BME280;59762;49.998;14.858;2023-02-01T04:04:24;97154.91;;;2.44;100.00
71889;BME280;59762;49.998;14.858;2023-02-01T04:06:50;97147.78;;;2.52;100.00
71889;BME280;59762;49.998;14.858;2023-02-01T04:09:16;97157.63;;;2.59;100.00
71889;BME280;59762;49.998;14.858;2023-02-01T04:11:42;97170.09;;;2.57;100.00
71889;BME280;59762;49.998;14.858;2023-02-01T04:14:08;97156.19;;;2.48;100.00
71889;BME280;59762;49.998;14.858;2023-02-01T04:16:34;97173.13;;;2.45;100.00
71889;BME280;59762;49.998;14.858;2023-02-01T04:19:00;97169.97;;;2.50;100.00
71889;BME280;59762;49.998;14.858;2023-02-01T04:21:26;97171.00;;;2.41;100.00
71889;BME280;59762;49.998;14.858;2023-02-01T04:23:52;97167.88;;;2.37;100.00
71889;BME280;59762;49.998;14.858;2023-02-01T04:26:18;97179.19;;;2.46;100.00
71889;BME280;59762;49.998;14.858;2023-02-01T04:28:45;97178.03;;;2.48;100.00
71889;BME280;59762;49.998;14.858;2023-02-01T04:31:16;97163.56;;;2.52;100.00
71889;BME280;59762;49.998;14.858;2023-02-01T04:33:43;97162.56;;;2.53;100.00
71889;BME280;59762;49.998;14.858;2023-02-01T04:36:09;97169.09;;;2.66;100.00
71889;BME280;59762;49.998;14.858;2023-02-01T04:38:35;97159.22;;;2.68;100.00
71889;BME280;59762;49.998;14.858;2023-02-01T04:41:01;97160.06;;;2.60;100.00
71889;BME280;59762;49.998;14.858;2023-02-01T04:43:26;97154.16;;;2.58;100.00
71889;BME280;59762;49.998;14.858;2023-02-01T04:45:52;97154.69;;;2.53;100.00
71889;BME280;59762;49.998;14.858;2023-02-01T04:48:20;97155.00;;;2.50;100.00
71889;BME280;59762;49.998;14.858;2023-02-01T04:50:46;97144.38;;;2.44;100.00
71889;BME280;59762;49.998;14.858;2023-02-01T04:53:17;97145.81;;;2.46;100.00
71889;BME280;59762;49.998;14.858;2023-02-01T04:55:43;97141.09;;;2.42;100.00
71889;BME280;59762;49.998;14.858;2023-02-01T04:58:10;97144.00;;;2.47;100.00
71889;BME280;59762;49.998;14.858;2023-02-01T05:00:36;97138.94;;;2.45;100.00
71889;BME280;59762;49.998;14.858;2023-02-01T05:03:03;97127.09;;;2.49;100.00
71889;BME280;59762;49.998;14.858;2023-02-01T05:05:29;97129.53;;;2.51;100.00
71889;BME280;59762;49.998;14.858;2023-02-01T05:07:55;97122.16;;;2.46;100.00
71889;BME280;59762;49.998;14.858;2023-02-01T05:10:21;97125.78;;;2.45;100.00
71889;BME280;59762;49.998;14.858;2023-02-01T05:12:47;97110.31;;;2.50;100.00
71889;BME280;59762;49.998;14.858;2023-02-01T05:15:32;97109.22;;;2.45;100.00
71889;BME280;59762;49.998;14.858;2023-02-01T05:17:57;97101.31;;;2.45;100.00
71889;BME280;59762;49.998;14.858;2023-02-01T05:20:24;97091.31;;;2.40;100.00
71889;BME280;59762;49.998;14.858;2023-02-01T05:22:50;97098.22;;;2.41;100.00
71889;BME280;59762;49.998;14.858;2023-02-01T05:25:15;97087.34;;;2.44;100.00
71889;BME280;59762;49.998;14.858;2023-02-01T05:27:41;97094.44;;;2.44;100.00
71889;BME280;59762;49.998;14.858;2023-02-01T05:30:08;97103.09;;;2.52;100.00
71889;BME280;59762;49.998;14.858;2023-02-01T05:32:34;97116.44;;;2.43;100.00
71889;BME280;59762;49.998;14.858;2023-02-01T05:34:59;97101.47;;;2.43;100.00
71889;BME280;59762;49.998;14.858;2023-02-01T05:37:25;97103.94;;;2.45;100.00
71889;BME280;59762;49.998;14.858;2023-02-01T05:39:51;97105.41;;;2.47;100.00
71889;BME280;59762;49.998;14.858;2023-02-01T05:42:17;97097.41;;;2.41;100.00
71889;BME280;59762;49.998;14.858;2023-02-01T05:44:42;97104.47;;;2.40;100.00
71889;BME280;59762;49.998;14.858;2023-02-01T05:47:09;97097.22;;;2.42;100.00
71889;BME280;59762;49.998;14.858;2023-02-01T05:49:34;97095.53;;;2.49;100.00
71889;BME280;59762;49.998;14.858;2023-02-01T05:52:00;97098.34;;;2.48;100.00
71889;BME280;59762;49.998;14.858;2023-02-01T05:54:26;97092.47;;;2.38;100.00
71889;BME280;59762;49.998;14.858;2023-02-01T05:56:52;97093.47;;;2.37;100.00
71889;BME280;59762;49.998;14.858;2023-02-01T05:59:18;97088.69;;;2.40;100.00
71889;BME280;59762;49.998;14.858;2023-02-01T06:01:43;97084.59;;;2.38;100.00
71889;BME280;59762;49.998;14.858;2023-02-01T06:04:09;97074.59;;;2.33;100.00
71889;BME280;59762;49.998;14.858;2023-02-01T06:06:35;97072.28;;;2.30;100.00
71889;BME280;59762;49.998;14.858;2023-02-01T06:09:02;97090.03;;;2.36;100.00
71889;BME280;59762;49.998;14.858;2023-02-01T06:11:28;97086.06;;;2.40;100.00
71889;BME280;59762;49.998;14.858;2023-02-01T06:13:54;97067.97;;;2.45;100.00
71889;BME280;59762;49.998;14.858;2023-02-01T06:16:21;97073.56;;;2.42;100.00
71889;BME280;59762;49.998;14.858;2023-02-01T06:18:47;97075.16;;;2.51;100.00
71889;BME280;59762;49.998;14.858;2023-02-01T06:21:14;97075.19;;;2.43;100.00
71889;BME280;59762;49.998;14.858;2023-02-01T06:23:54;97070.25;;;2.48;100.00
71889;BME280;59762;49.998;14.858;2023-02-01T06:26:21;97058.25;;;2.46;100.00
71889;BME280;59762;49.998;14.858;2023-02-01T06:28:46;97072.00;;;2.56;100.00
71889;BME280;59762;49.998;14.858;2023-02-01T06:31:12;97085.63;;;2.60;100.00
71889;BME280;59762;49.998;14.858;2023-02-01T06:33:38;97074.50;;;2.49;100.00
71889;BME280;59762;49.998;14.858;2023-02-01T06:36:06;97064.81;;;2.50;100.00
71889;BME280;59762;49.998;14.858;2023-02-01T06:38:32;97068.91;;;2.52;100.00
71889;BME280;59762;49.998;14.858;2023-02-01T06:41:02;97073.03;;;2.47;100.00
71889;BME280;59762;49.998;14.858;2023-02-01T06:43:29;97050.50;;;2.52;100.00
71889;BME280;59762;49.998;14.858;2023-02-01T06:46:03;97066.81;;;2.48;100.00
71889;BME280;59762;49.998;14.858;2023-02-01T06:48:30;97066.91;;;2.55;100.00
71889;BME280;59762;49.998;14.858;2023-02-01T06:50:56;97075.63;;;2.55;100.00
71889;BME280;59762;49.998;14.858;2023-02-01T06:53:22;97091.63;;;2.45;100.00
71889;BME280;59762;49.998;14.858;2023-02-01T06:55:52;97075.16;;;2.51;100.00
71889;BME280;59762;49.998;14.858;2023-02-01T06:58:18;97073.91;;;2.39;100.00
71889;BME280;59762;49.998;14.858;2023-02-01T07:00:44;97077.50;;;2.38;100.00
71889;BME280;59762;49.998;14.858;2023-02-01T07:03:09;97076.88;;;2.36;100.00
71889;BME280;59762;49.998;14.858;2023-02-01T07:05:35;97075.59;;;2.32;100.00
71889;BME280;59762;49.998;14.858;2023-02-01T07:08:01;97082.31;;;2.35;100.00
71889;BME280;59762;49.998;14.858;2023-02-01T07:10:26;97067.66;;;2.40;100.00
71889;BME280;59762;49.998;14.858;2023-02-01T07:12:56;97070.78;;;2.44;100.00
71889;BME280;59762;49.998;14.858;2023-02-01T07:15:22;97067.25;;;2.51;100.00
71889;BME280;59762;49.998;14.858;2023-02-01T07:17:47;97073.19;;;2.53;100.00
71889;BME280;59762;49.998;14.858;2023-02-01T07:20:15;97063.19;;;2.49;100.00
71889;BME280;59762;49.998;14.858;2023-02-01T07:22:41;97070.06;;;2.50;100.00
71889;BME280;59762;49.998;14.858;2023-02-01T07:25:07;97068.91;;;2.52;100.00
71889;BME280;59762;49.998;14.858;2023-02-01T07:27:36;97071.94;;;2.64;100.00
71889;BME280;59762;49.998;14.858;2023-02-01T07:30:03;97067.88;;;2.62;100.00
71889;BME280;59762;49.998;14.858;2023-02-01T07:32:30;97065.09;;;2.55;100.00
71889;BME280;59762;49.998;14.858;2023-02-01T07:34:56;97063.25;;;2.64;100.00
71889;BME280;59762;49.998;14.858;2023-02-01T07:37:22;97067.34;;;2.66;100.00
71889;BME280;59762;49.998;14.858;2023-02-01T07:39:50;97057.22;;;2.78;100.00
71889;BME280;59762;49.998;14.858;2023-02-01T07:42:16;97050.16;;;2.78;100.00
71889;BME280;59762;49.998;14.858;2023-02-01T07:44:42;97061.38;;;2.95;100.00
71889;BME280;59762;49.998;14.858;2023-02-01T07:47:07;97052.09;;;2.85;100.00
71889;BME280;59762;49.998;14.858;2023-02-01T07:49:33;97050.47;;;2.84;100.00
71889;BME280;59762;49.998;14.858;2023-02-01T07:51:58;97057.41;;;2.99;100.00
71889;BME280;59762;49.998;14.858;2023-02-01T07:54:24;97054.91;;;3.06;100.00
71889;BME280;59762;49.998;14.858;2023-02-01T07:56:50;97052.50;;;3.19;100.00
71889;BME280;59762;49.998;14.858;2023-02-01T07:59:15;97050.03;;;3.18;100.00
71889;BME280;59762;49.998;14.858;2023-02-01T08:01:41;97053.38;;;3.12;100.00
71889;BME280;59762;49.998;14.858;2023-02-01T08:04:09;97038.22;;;3.14;100.00
71889;BME280;59762;49.998;14.858;2023-02-01T08:06:36;97040.50;;;3.17;100.00
71889;BME280;59762;49.998;14.858;2023-02-01T08:09:02;97040.16;;;3.20;100.00
71889;BME280;59762;49.998;14.858;2023-02-01T08:11:28;97043.78;;;3.19;100.00
71889;BME280;59762;49.998;14.858;2023-02-01T08:13:55;97045.47;;;3.12;100.00
71889;BME280;59762;49.998;14.858;2023-02-01T08:16:21;97039.63;;;3.24;100.00
71889;BME280;59762;49.998;14.858;2023-02-01T08:18:47;97037.47;;;3.28;100.00
71889;BME280;59762;49.998;14.858;2023-02-01T08:21:16;97027.75;;;3.28;100.00
71889;BME280;59762;49.998;14.858;2023-02-01T08:23:42;97035.50;;;3.22;100.00
71889;BME280;59762;49.998;14.858;2023-02-01T08:26:14;97039.16;;;3.21;100.00
71889;BME280;59762;49.998;14.858;2023-02-01T08:28:46;97027.28;;;3.25;100.00
71889;BME280;59762;49.998;14.858;2023-02-01T08:31:14;97034.03;;;3.42;100.00
71889;BME280;59762;49.998;14.858;2023-02-01T08:33:41;97027.00;;;3.35;100.00
71889;BME280;59762;49.998;14.858;2023-02-01T08:36:08;97030.13;;;3.38;100.00
71889;BME280;59762;49.998;14.858;2023-02-01T08:38:36;97029.91;;;3.25;100.00
71889;BME280;59762;49.998;14.858;2023-02-01T08:41:11;97025.19;;;3.20;100.00
71889;BME280;59762;49.998;14.858;2023-02-01T08:43:38;97022.88;;;3.02;100.00
71889;BME280;59762;49.998;14.858;2023-02-01T08:46:04;97028.34;;;3.16;100.00
71889;BME280;59762;49.998;14.858;2023-02-01T08:48:31;97020.72;;;3.21;100.00
71889;BME280;59762;49.998;14.858;2023-02-01T08:50:57;97016.47;;;3.20;100.00
71889;BME280;59762;49.998;14.858;2023-02-01T08:53:23;97011.75;;;3.15;100.00
71889;BME280;59762;49.998;14.858;2023-02-01T08:55:48;97021.06;;;3.18;100.00
71889;BME280;59762;49.998;14.858;2023-02-01T08:58:14;97016.41;;;3.28;100.00
71889;BME280;59762;49.998;14.858;2023-02-01T09:00:43;97014.38;;;3.30;100.00
71889;BME280;59762;49.998;14.858;2023-02-01T09:03:11;97013.91;;;3.12;100.00
71889;BME280;59762;49.998;14.858;2023-02-01T09:05:37;97020.25;;;3.17;100.00
71889;BME280;59762;49.998;14.858;2023-02-01T09:08:03;97022.00;;;3.25;100.00
71889;BME280;59762;49.998;14.858;2023-02-01T09:10:28;97027.25;;;3.10;100.00
71889;BME280;59762;49.998;14.858;2023-02-01T09:12:54;97028.91;;;3.26;100.00
71889;BME280;59762;49.998;14.858;2023-02-01T09:15:19;97021.69;;;3.43;100.00
71889;BME280;59762;49.998;14.858;2023-02-01T09:17:45;97022.13;;;3.46;100.00
71889;BME280;59762;49.998;14.858;2023-02-01T09:20:11;97029.03;;;3.47;100.00
71889;BME280;59762;49.998;14.858;2023-02-01T09:22:38;97020.13;;;3.48;100.00
71889;BME280;59762;49.998;14.858;2023-02-01T09:25:04;97035.66;;;3.43;100.00
71889;BME280;59762;49.998;14.858;2023-02-01T09:27:30;97016.75;;;3.40;100.00
71889;BME280;59762;49.998;14.858;2023-02-01T09:29:55;97015.41;;;3.44;100.00
71889;BME280;59762;49.998;14.858;2023-02-01T09:32:22;97017.03;;;3.45;100.00
71889;BME280;59762;49.998;14.858;2023-02-01T09:34:49;97018.41;;;3.56;100.00
71889;BME280;59762;49.998;14.858;2023-02-01T09:37:16;97020.66;;;3.44;100.00
71889;BME280;59762;49.998;14.858;2023-02-01T09:39:41;97010.88;;;3.38;100.00
71889;BME280;59762;49.998;14.858;2023-02-01T09:45:17;97009.31;;;3.43;100.00
71889;BME280;59762;49.998;14.858;2023-02-01T09:47:52;97007.88;;;3.56;100.00
71889;BME280;59762;49.998;14.858;2023-02-01T09:50:34;97002.91;;;3.46;100.00
71889;BME280;59762;49.998;14.858;2023-02-01T09:53:05;96992.25;;;3.39;100.00
71889;BME280;59762;49.998;14.858;2023-02-01T09:55:36;96994.00;;;3.47;100.00
71889;BME280;59762;49.998;14.858;2023-02-01T09:58:12;96992.78;;;3.49;100.00
71889;BME280;59762;49.998;14.858;2023-02-01T10:00:40;96985.06;;;3.63;100.00
71889;BME280;59762;49.998;14.858;2023-02-01T10:03:13;96980.34;;;3.58;100.00
71889;BME280;59762;49.998;14.858;2023-02-01T10:08:57;96990.72;;;3.60;100.00
71889;BME280;59762;49.998;14.858;2023-02-01T10:17:20;96983.47;;;3.47;100.00
71889;BME280;59762;49.998;14.858;2023-02-01T10:20:27;96976.28;;;3.56;100.00
71889;BME280;59762;49.998;14.858;2023-02-01T10:23:16;96991.53;;;3.60;100.00
71889;BME280;59762;49.998;14.858;2023-02-01T10:25:56;96979.72;;;3.71;100.00
71889;BME280;59762;49.998;14.858;2023-02-01T10:28:25;96974.72;;;3.76;100.00
71889;BME280;59762;49.998;14.858;2023-02-01T10:30:54;96975.75;;;3.60;100.00
71889;BME280;59762;49.998;14.858;2023-02-01T10:33:45;96971.56;;;3.66;100.00
71889;BME280;59762;49.998;14.858;2023-02-01T10:36:44;96962.19;;;3.78;100.00
71889;BME280;59762;49.998;14.858;2023-02-01T10:39:14;96948.81;;;3.94;100.00
71889;BME280;59762;49.998;14.858;2023-02-01T10:41:41;96956.19;;;3.84;100.00
71889;BME280;59762;49.998;14.858;2023-02-01T10:44:17;96962.97;;;3.93;100.00
71889;BME280;59762;49.998;14.858;2023-02-01T10:46:45;96968.19;;;3.57;100.00
71889;BME280;59762;49.998;14.858;2023-02-01T10:49:18;96966.72;;;3.40;100.00
71889;BME280;59762;49.998;14.858;2023-02-01T10:54:37;96965.78;;;2.88;100.00
71889;BME280;59762;49.998;14.858;2023-02-01T10:57:24;96957.00;;;2.73;100.00
71889;BME280;59762;49.998;14.858;2023-02-01T10:59:55;96963.59;;;2.69;100.00
71889;BME280;59762;49.998;14.858;2023-02-01T11:02:25;96971.44;;;2.77;100.00
71889;BME280;59762;49.998;14.858;2023-02-01T11:05:13;96965.66;;;2.82;100.00
71889;BME280;59762;49.998;14.858;2023-02-01T11:07:48;96974.00;;;2.85;100.00
71889;BME280;59762;49.998;14.858;2023-02-01T11:10:40;96990.94;;;2.83;100.00
71889;BME280;59762;49.998;14.858;2023-02-01T11:13:14;96977.09;;;2.89;100.00
71889;BME280;59762;49.998;14.858;2023-02-01T11:15:46;96981.16;;;2.76;100.00
71889;BME280;59762;49.998;14.858;2023-02-01T11:18:26;96978.31;;;2.78;100.00
71889;BME280;59762;49.998;14.858;2023-02-01T11:20:52;96961.91;;;2.76;100.00
71889;BME280;59762;49.998;14.858;2023-02-01T11:23:28;96968.19;;;2.75;100.00
71889;BME280;59762;49.998;14.858;2023-02-01T11:25:55;96979.13;;;2.78;100.00
71889;BME280;59762;49.998;14.858;2023-02-01T11:28:25;96958.53;;;2.67;100.00
71889;BME280;59762;49.998;14.858;2023-02-01T11:30:55;96961.38;;;2.81;100.00
71889;BME280;59762;49.998;14.858;2023-02-01T11:33:26;96958.22;;;2.85;100.00
71889;BME280;59762;49.998;14.858;2023-02-01T11:35:56;96958.44;;;2.98;100.00
71889;BME280;59762;49.998;14.858;2023-02-01T11:38:31;96950.81;;;3.03;100.00
71889;BME280;59762;49.998;14.858;2023-02-01T11:41:24;96944.81;;;3.10;100.00
71889;BME280;59762;49.998;14.858;2023-02-01T11:43:57;96950.94;;;3.25;100.00
71889;BME280;59762;49.998;14.858;2023-02-01T11:46:34;96935.53;;;3.37;100.00
71889;BME280;59762;49.998;14.858;2023-02-01T11:49:25;96937.88;;;3.46;100.00
71889;BME280;59762;49.998;14.858;2023-02-01T11:51:59;96946.41;;;3.63;100.00
71889;BME280;59762;49.998;14.858;2023-02-01T11:54:45;96951.69;;;3.63;100.00
71889;BME280;59762;49.998;14.858;2023-02-01T12:13:03;96949.25;;;3.98;100.00
71889;BME280;59762;49.998;14.858;2023-02-01T12:15:40;96962.00;;;3.94;100.00
71889;BME280;59762;49.998;14.858;2023-02-01T12:20:52;96947.31;;;4.07;100.00
71889;BME280;59762;49.998;14.858;2023-02-01T12:32:06;96948.25;;;4.35;100.00
71889;BME280;59762;49.998;14.858;2023-02-01T12:40:25;96933.25;;;4.57;100.00
71889;BME280;59762;49.998;14.858;2023-02-01T12:45:56;96942.44;;;4.61;100.00
71889;BME280;59762;49.998;14.858;2023-02-01T12:49:17;96934.56;;;4.68;100.00
71889;BME280;59762;49.998;14.858;2023-02-01T12:51:36;96929.94;;;4.70;100.00
71889;BME280;59762;49.998;14.858;2023-02-01T12:57:23;96922.88;;;4.55;100.00
71889;BME280;59762;49.998;14.858;2023-02-01T13:03:11;96974.28;;;3.43;100.00
71889;BME280;59762;49.998;14.858;2023-02-01T13:11:16;96960.06;;;2.99;100.00
71889;BME280;59762;49.998;14.858;2023-02-01T13:14:03;96961.59;;;2.94;100.00
71889;BME280;59762;49.998;14.858;2023-02-01T13:16:38;96954.25;;;2.89;100.00
71889;BME280;59762;49.998;14.858;2023-02-01T13:19:23;96955.34;;;2.95;100.00
71889;BME280;59762;49.998;14.858;2023-02-01T13:21:56;96957.66;;;2.75;100.00
71889;BME280;59762;49.998;14.858;2023-02-01T13:24:30;96960.38;;;2.82;100.00
71889;BME280;59762;49.998;14.858;2023-02-01T13:26:58;96963.34;;;2.78;100.00
71889;BME280;59762;49.998;14.858;2023-02-01T13:29:25;96957.56;;;3.06;100.00
71889;BME280;59762;49.998;14.858;2023-02-01T13:40:23;96945.31;;;3.72;100.00
71889;BME280;59762;49.998;14.858;2023-02-01T13:42:58;96948.28;;;3.84;100.00
71889;BME280;59762;49.998;14.858;2023-02-01T13:45:34;96953.16;;;4.02;100.00
71889;BME280;59762;49.998;14.858;2023-02-01T13:48:04;96949.84;;;4.15;100.00
71889;BME280;59762;49.998;14.858;2023-02-01T13:50:38;96947.97;;;4.09;100.00
71889;BME280;59762;49.998;14.858;2023-02-01T13:55:39;96953.28;;;4.30;100.00
71889;BME280;59762;49.998;14.858;2023-02-01T13:58:13;96946.22;;;4.37;100.00
71889;BME280;59762;49.998;14.858;2023-02-01T14:00:41;96942.34;;;4.33;100.00
71889;BME280;59762;49.998;14.858;2023-02-01T14:03:12;96951.41;;;4.45;100.00
71889;BME280;59762;49.998;14.858;2023-02-01T14:18:49;96930.41;;;4.59;100.00
71889;BME280;59762;49.998;14.858;2023-02-01T14:23:46;96916.75;;;4.48;100.00
71889;BME280;59762;49.998;14.858;2023-02-01T14:26:18;96919.81;;;4.52;100.00
71889;BME280;59762;49.998;14.858;2023-02-01T14:28:54;96934.31;;;4.41;100.00
71889;BME280;59762;49.998;14.858;2023-02-01T14:31:34;96936.78;;;4.43;100.00
71889;BME280;59762;49.998;14.858;2023-02-01T14:34:08;96954.22;;;4.44;100.00
71889;BME280;59762;49.998;14.858;2023-02-01T14:36:50;96934.69;;;4.38;100.00
71889;BME280;59762;49.998;14.858;2023-02-01T14:39:28;96949.28;;;4.34;100.00
71889;BME280;59762;49.998;14.858;2023-02-01T14:41:58;96944.97;;;4.33;100.00
71889;BME280;59762;49.998;14.858;2023-02-01T14:44:42;96950.78;;;4.43;100.00
71889;BME280;59762;49.998;14.858;2023-02-01T14:47:27;96947.34;;;4.28;100.00
71889;BME280;59762;49.998;14.858;2023-02-01T14:52:44;96940.81;;;4.24;100.00
71889;BME280;59762;49.998;14.858;2023-02-01T14:55:15;96946.28;;;4.22;100.00
71889;BME280;59762;49.998;14.858;2023-02-01T14:57:46;96941.47;;;4.26;100.00
71889;BME280;59762;49.998;14.858;2023-02-01T15:00:24;96936.69;;;4.15;100.00
71889;BME280;59762;49.998;14.858;2023-02-01T15:02:51;96939.88;;;4.10;100.00
71889;BME280;59762;49.998;14.858;2023-02-01T15:07:55;96938.25;;;4.09;100.00
71889;BME280;59762;49.998;14.858;2023-02-01T15:10:22;96947.72;;;4.03;100.00
71889;BME280;59762;49.998;14.858;2023-02-01T15:12:49;96945.69;;;4.05;100.00
71889;BME280;59762;49.998;14.858;2023-02-01T15:15:19;96945.00;;;3.97;100.00
71889;BME280;59762;49.998;14.858;2023-02-01T15:17:56;96937.84;;;3.91;100.00
71889;BME280;59762;49.998;14.858;2023-02-01T15:20:28;96929.94;;;3.91;100.00